Time;durP1;ratioP1;P1;durP2;ratioP2;P2;SDS_P1;SDS_P2;PMS_P1;PMS_P2;Temp;Humidity;BMP_temperature;BMP_pressure;BME280_temperature;BME280_humidity;BME280_pressure;Samples;Min_cycle;Max_cycle;Signal;HPM_P1;HPM_P2
2021/09/14 00:01:39;;;;;;;8.50;7.43;;;18.40;99.90;;;;;;5014935;28;20205;-77
2021/09/14 00:04:05;;;;;;;6.73;6.03;;;18.40;99.90;;;;;;5014716;28;20173;-78
2021/09/14 00:06:33;;;;;;;8.13;6.13;;;18.40;99.90;;;;;;4981147;28;20174;-78
2021/09/14 00:08:59;;;;;;;7.10;6.40;;;18.40;99.90;;;;;;5014319;28;20202;-77
2021/09/14 00:11:25;;;;;;;6.97;6.37;;;18.40;99.90;;;;;;4997323;28;21325;-78
2021/09/14 00:13:51;;;;;;;6.43;5.77;;;18.30;99.90;;;;;;4997161;28;20195;-78
2021/09/14 00:16:16;;;;;;;7.63;6.27;;;18.30;99.90;;;;;;5014733;28;20619;-78
2021/09/14 00:18:42;;;;;;;7.57;6.80;;;18.30;99.90;;;;;;4996924;28;20643;-77
2021/09/14 00:21:08;;;;;;;7.70;7.00;;;18.30;99.90;;;;;;5019337;28;20175;-77
2021/09/14 00:23:33;;;;;;;7.20;6.60;;;18.30;99.90;;;;;;4997089;28;20579;-78
2021/09/14 00:25:59;;;;;;;7.83;6.93;;;18.30;99.90;;;;;;5014536;28;20258;-78
2021/09/14 00:28:25;;;;;;;6.00;5.50;;;18.30;99.90;;;;;;4996928;28;20185;-77
2021/09/14 00:30:50;;;;;;;7.03;6.37;;;18.30;99.90;;;;;;5014521;28;20825;-78
2021/09/14 00:33:17;;;;;;;6.47;5.97;;;18.30;99.90;;;;;;5014726;28;20277;-77
2021/09/14 00:35:42;;;;;;;6.83;6.23;;;18.30;99.90;;;;;;4999365;28;20167;-78
2021/09/14 00:38:08;;;;;;;5.97;5.47;;;18.20;99.90;;;;;;5027402;28;20588;-78
2021/09/14 00:40:34;;;;;;;6.53;6.03;;;18.30;99.90;;;;;;5037502;28;20583;-78
2021/09/14 00:43:00;;;;;;;7.07;6.43;;;18.30;99.90;;;;;;5027989;28;20228;-78
2021/09/14 00:45:26;;;;;;;7.20;6.43;;;18.20;99.90;;;;;;5028373;28;20639;-78
2021/09/14 00:47:52;;;;;;;6.90;6.30;;;18.20;99.90;;;;;;5020021;28;20624;-78
2021/09/14 00:50:18;;;;;;;7.03;6.43;;;18.20;99.90;;;;;;5034621;28;20162;-78
2021/09/14 00:52:45;;;;;;;7.00;6.50;;;18.20;99.90;;;;;;5018324;28;20178;-78
2021/09/14 00:55:11;;;;;;;6.20;5.70;;;18.20;99.90;;;;;;5016780;28;20592;-77
2021/09/14 00:57:36;;;;;;;7.20;6.67;;;18.20;99.90;;;;;;5035083;28;20587;-78
2021/09/14 01:00:04;;;;;;;7.23;6.30;;;18.20;99.90;;;;;;5034977;28;20572;-78
2021/09/14 01:02:30;;;;;;;8.03;7.33;;;18.10;99.90;;;;;;5030084;28;20193;-78
2021/09/14 01:04:57;;;;;;;6.17;5.60;;;18.10;99.90;;;;;;5034248;28;20584;-78
2021/09/14 01:07:23;;;;;;;7.73;6.93;;;18.10;99.90;;;;;;5025000;28;20678;-78
2021/09/14 01:09:49;;;;;;;6.90;6.30;;;18.10;99.90;;;;;;5032454;28;20584;-78
2021/09/14 01:12:18;;;;;;;6.67;6.10;;;18.00;99.90;;;;;;5024232;28;20624;-77
2021/09/14 01:14:51;;;;;;;6.93;6.40;;;18.00;99.90;;;;;;5028252;28;20585;-78
2021/09/14 01:17:17;;;;;;;8.10;7.30;;;18.00;99.90;;;;;;5006535;28;20585;-78
2021/09/14 01:19:43;;;;;;;6.40;5.87;;;18.00;99.90;;;;;;5014984;28;20580;-78
2021/09/14 01:22:10;;;;;;;7.90;7.20;;;18.00;99.90;;;;;;5036979;28;20289;-78
2021/09/14 01:24:36;;;;;;;6.90;6.30;;;18.00;99.90;;;;;;5015579;28;20178;-78
2021/09/14 01:27:06;;;;;;;8.30;7.50;;;18.00;99.90;;;;;;5015214;28;20583;-78
2021/09/14 01:32:24;;;;;;;7.60;6.90;;;18.00;99.90;;;;;;5015845;28;21198;-78
2021/09/14 01:34:51;;;;;;;6.90;6.10;;;18.00;99.90;;;;;;5003685;28;20600;-78
2021/09/14 01:37:17;;;;;;;8.23;7.40;;;18.00;99.90;;;;;;5014956;28;20623;-78
2021/09/14 01:39:43;;;;;;;8.53;7.83;;;18.00;99.90;;;;;;4999046;28;20573;-78
2021/09/14 01:42:09;;;;;;;6.80;6.20;;;18.00;99.90;;;;;;5014878;28;20596;-78
2021/09/14 01:44:35;;;;;;;7.23;6.60;;;18.00;99.90;;;;;;5032822;28;20196;-78
2021/09/14 01:47:01;;;;;;;8.03;7.30;;;18.00;99.90;;;;;;5014725;28;20166;-78
2021/09/14 01:49:26;;;;;;;8.37;7.60;;;18.00;99.90;;;;;;4998469;28;20625;-77
2021/09/14 01:51:52;;;;;;;9.90;6.77;;;18.00;99.90;;;;;;4998242;28;20216;-77
2021/09/14 01:54:18;;;;;;;7.23;6.60;;;18.00;99.90;;;;;;5015191;28;20963;-78
2021/09/14 01:56:44;;;;;;;7.67;6.13;;;18.00;99.90;;;;;;5014864;28;20595;-78
2021/09/14 01:59:12;;;;;;;8.70;6.77;;;18.00;99.90;;;;;;5014537;28;20166;-78
2021/09/14 02:01:44;;;;;;;6.80;6.30;;;18.00;99.90;;;;;;5014530;28;20572;-78
2021/09/14 02:07:22;;;;;;;7.43;6.60;;;17.90;99.90;;;;;;5015129;28;20565;-78
2021/09/14 02:41:51;;;;;;;6.40;5.70;;;17.70;99.90;;;;;;5014349;28;20679;-79
2021/09/14 03:00:45;;;;;;;7.93;7.13;;;17.60;99.90;;;;;;5031600;28;20592;-79
2021/09/14 03:03:10;;;;;;;7.33;6.60;;;17.60;99.90;;;;;;5014103;28;20663;-78
2021/09/14 03:05:36;;;;;;;6.07;5.47;;;17.60;99.90;;;;;;5014230;28;20184;-78
2021/09/14 03:08:02;;;;;;;7.10;6.50;;;17.50;99.90;;;;;;5014443;28;20182;-78
2021/09/14 03:10:31;;;;;;;7.60;6.90;;;17.50;99.90;;;;;;5015178;28;20618;-78
2021/09/14 03:12:58;;;;;;;6.73;6.13;;;17.50;99.90;;;;;;5016656;28;20612;-78
2021/09/14 03:15:24;;;;;;;8.07;7.37;;;17.50;99.90;;;;;;5037330;28;20624;-78
2021/09/14 03:17:49;;;;;;;8.30;7.50;;;17.50;99.90;;;;;;4999477;28;20674;-78
2021/09/14 03:20:16;;;;;;;6.93;6.33;;;17.50;99.90;;;;;;5026406;28;20584;-78
2021/09/14 03:22:42;;;;;;;6.90;6.37;;;17.50;99.90;;;;;;5015289;28;20702;-79
2021/09/14 03:25:10;;;;;;;8.27;7.53;;;17.50;99.90;;;;;;5021791;28;20177;-79
2021/09/14 03:27:36;;;;;;;6.57;5.90;;;17.50;99.90;;;;;;5020750;28;20584;-78
2021/09/14 03:30:04;;;;;;;7.60;6.07;;;17.50;99.90;;;;;;5031070;28;20626;-78
2021/09/14 03:32:33;;;;;;;7.47;6.80;;;17.50;99.90;;;;;;5022281;28;20750;-77
2021/09/14 03:34:59;;;;;;;7.23;6.53;;;17.50;99.90;;;;;;5013839;28;20564;-77
2021/09/14 03:37:25;;;;;;;7.47;6.80;;;17.50;99.90;;;;;;5013296;28;20188;-77
2021/09/14 03:39:51;;;;;;;7.17;6.47;;;17.50;99.90;;;;;;4997534;28;20611;-78
2021/09/14 03:42:17;;;;;;;6.90;6.30;;;17.50;99.90;;;;;;5013702;28;20640;-78
2021/09/14 03:44:43;;;;;;;7.67;6.97;;;17.40;99.90;;;;;;5013443;28;20576;-78
2021/09/14 03:47:10;;;;;;;7.70;7.10;;;17.40;99.90;;;;;;4996704;28;20563;-77
2021/09/14 03:49:36;;;;;;;7.03;6.47;;;17.40;99.90;;;;;;5013581;28;20552;-78
2021/09/14 03:52:02;;;;;;;7.67;6.37;;;17.40;99.90;;;;;;5013450;28;20731;-78
2021/09/14 03:54:29;;;;;;;7.20;6.50;;;17.40;99.90;;;;;;4997230;28;20232;-78
2021/09/14 03:56:56;;;;;;;8.10;7.40;;;17.40;99.90;;;;;;5013580;28;20663;-78
2021/09/14 03:59:22;;;;;;;6.97;6.37;;;17.40;99.90;;;;;;5013314;28;20557;-78
2021/09/14 04:01:52;;;;;;;7.53;6.73;;;17.40;99.90;;;;;;5002310;28;20667;-78
2021/09/14 04:04:24;;;;;;;6.73;6.13;;;17.30;99.90;;;;;;5031342;28;20565;-78
2021/09/14 04:09:19;;;;;;;7.30;6.73;;;17.30;99.90;;;;;;5013017;28;20589;-78
2021/09/14 04:11:50;;;;;;;7.43;6.73;;;17.30;99.90;;;;;;5012924;28;20611;-78
2021/09/14 04:14:17;;;;;;;6.50;5.90;;;17.30;99.90;;;;;;5013473;28;20566;-77
2021/09/14 04:16:44;;;;;;;7.60;6.90;;;17.30;99.90;;;;;;4997910;28;20699;-78
2021/09/14 04:19:09;;;;;;;6.87;6.23;;;17.20;99.90;;;;;;5034152;28;20563;-79
2021/09/14 04:21:36;;;;;;;7.60;7.00;;;17.20;99.90;;;;;;5016536;28;20162;-79
2021/09/14 04:24:02;;;;;;;8.87;8.07;;;17.20;99.90;;;;;;5000679;28;20576;-78
2021/09/14 04:26:31;;;;;;;7.17;6.47;;;17.20;99.90;;;;;;5016688;28;20971;-78
2021/09/14 04:28:57;;;;;;;8.00;6.57;;;17.20;99.90;;;;;;5016386;28;20580;-78
2021/09/14 04:31:24;;;;;;;7.70;7.10;;;17.10;99.90;;;;;;5016916;28;20236;-79
2021/09/14 04:33:49;;;;;;;7.73;6.97;;;17.10;99.90;;;;;;5000339;28;20600;-79
2021/09/14 04:36:15;;;;;;;7.70;6.90;;;17.10;99.90;;;;;;5016795;28;20245;-79
2021/09/14 04:38:42;;;;;;;7.10;6.40;;;17.10;99.90;;;;;;5021813;28;20173;-79
2021/09/14 04:41:09;;;;;;;8.07;6.37;;;17.10;99.90;;;;;;5016738;28;20579;-79
2021/09/14 04:43:36;;;;;;;7.93;7.30;;;17.10;99.90;;;;;;5016170;28;21146;-79
2021/09/14 04:46:04;;;;;;;8.40;7.50;;;17.00;99.90;;;;;;5016569;28;20608;-79
2021/09/14 04:48:31;;;;;;;7.70;6.93;;;17.00;99.90;;;;;;5015864;28;20572;-79
2021/09/14 04:50:57;;;;;;;9.10;8.20;;;17.00;99.90;;;;;;5016362;28;20623;-79
2021/09/14 04:53:23;;;;;;;8.00;7.30;;;17.00;99.90;;;;;;5016150;28;21152;-79
2021/09/14 04:55:51;;;;;;;7.57;6.87;;;17.00;99.90;;;;;;4999695;28;20584;-79
2021/09/14 04:58:17;;;;;;;7.47;6.80;;;17.00;99.90;;;;;;5015953;28;20630;-79
2021/09/14 05:00:43;;;;;;;8.33;7.30;;;17.00;99.90;;;;;;5016071;28;21356;-79
2021/09/14 05:03:13;;;;;;;6.50;6.00;;;17.00;99.90;;;;;;5015987;28;20611;-79
2021/09/14 05:05:39;;;;;;;8.03;7.17;;;17.00;99.90;;;;;;4999614;28;20588;-79
2021/09/14 05:08:05;;;;;;;7.10;6.50;;;17.00;99.90;;;;;;5015594;28;20587;-79
2021/09/14 05:10:31;;;;;;;7.67;6.97;;;17.00;99.90;;;;;;4999969;28;20620;-79
2021/09/14 05:12:57;;;;;;;7.03;6.47;;;17.00;99.90;;;;;;5016375;28;20603;-79
2021/09/14 05:15:23;;;;;;;7.47;6.80;;;17.10;99.90;;;;;;5019496;28;20166;-79
2021/09/14 05:18:08;;;;;;;6.80;6.30;;;17.10;99.90;;;;;;4999546;28;20951;-80
2021/09/14 05:20:40;;;;;;;7.57;6.87;;;17.10;99.90;;;;;;5015603;28;20600;-80
2021/09/14 05:23:16;;;;;;;7.13;6.40;;;17.10;99.90;;;;;;5042753;22;20655;-77
2021/09/14 05:25:44;;;;;;;7.50;6.80;;;17.20;99.90;;;;;;4981703;28;20740;-76
2021/09/14 05:28:13;;;;;;;7.20;6.53;;;17.20;99.90;;;;;;5036152;28;20589;-76
2021/09/14 05:30:43;;;;;;;7.00;6.30;;;17.20;99.90;;;;;;5008281;28;20625;-76
2021/09/14 05:33:09;;;;;;;6.47;5.73;;;17.30;99.90;;;;;;5017758;28;20613;-77
2021/09/14 05:35:44;;;;;;;6.47;5.97;;;17.30;99.90;;;;;;5027763;28;20580;-77
2021/09/14 05:38:11;;;;;;;5.57;5.07;;;17.30;99.90;;;;;;5022078;28;20600;-74
2021/09/14 05:40:37;;;;;;;6.80;6.20;;;17.40;99.90;;;;;;5023431;28;20706;-77
2021/09/14 05:43:08;;;;;;;6.73;6.13;;;17.50;99.90;;;;;;5031466;28;20615;-74
2021/09/14 05:45:34;;;;;;;8.03;6.47;;;17.50;99.90;;;;;;5031927;28;20939;-77
2021/09/14 05:48:00;;;;;;;8.00;7.23;;;17.60;99.90;;;;;;4994239;28;20189;-75
2021/09/14 05:50:31;;;;;;;6.37;5.87;;;17.60;99.90;;;;;;5031089;28;21121;-76
2021/09/14 05:52:56;;;;;;;6.83;6.23;;;17.70;99.90;;;;;;5032239;28;20627;-75
2021/09/14 05:55:22;;;;;;;7.30;6.20;;;17.80;99.90;;;;;;5014785;28;20267;-75
2021/09/14 05:57:48;;;;;;;7.27;6.23;;;17.90;99.90;;;;;;5014331;28;20587;-76
2021/09/14 06:00:14;;;;;;;7.20;6.60;;;18.00;99.90;;;;;;5014883;28;20588;-75
2021/09/14 06:02:40;;;;;;;6.27;5.77;;;18.10;99.90;;;;;;5032329;28;20652;-75
2021/09/14 06:05:09;;;;;;;6.90;6.30;;;18.10;99.90;;;;;;5017354;28;20642;-77
2021/09/14 06:07:38;;;;;;;8.63;6.77;;;18.30;99.90;;;;;;5037122;28;20661;-74
2021/09/14 06:10:04;;;;;;;7.47;6.67;;;18.40;99.90;;;;;;5033663;28;20600;-74
2021/09/14 06:12:38;;;;;;;6.27;5.77;;;18.40;99.90;;;;;;5034303;28;20587;-78
2021/09/14 06:15:06;;;;;;;6.77;6.07;;;18.50;99.90;;;;;;5034200;28;20571;-74
2021/09/14 06:17:32;;;;;;;9.13;7.00;;;18.60;99.90;;;;;;5033927;28;20708;-74
2021/09/14 06:19:58;;;;;;;6.77;5.97;;;18.70;99.90;;;;;;5033966;28;20930;-77
2021/09/14 06:22:25;;;;;;;7.27;6.53;;;18.70;99.90;;;;;;5034178;28;20666;-74
2021/09/14 06:24:51;;;;;;;6.60;5.30;;;18.80;99.90;;;;;;5033963;28;21001;-74
2021/09/14 06:27:17;;;;;;;6.97;6.27;;;18.80;99.90;;;;;;5033831;28;20641;-75
2021/09/14 06:29:43;;;;;;;6.73;5.80;;;18.90;99.90;;;;;;5034054;28;20579;-74
2021/09/14 06:32:12;;;;;;;6.27;5.67;;;18.90;99.90;;;;;;5034034;28;20959;-74
2021/09/14 06:34:57;;;;;;;5.80;5.20;;;19.00;99.90;;;;;;5003578;28;20575;-77
2021/09/14 06:37:23;;;;;;;5.70;5.20;;;19.10;99.90;;;;;;5051498;28;20921;-74
2021/09/14 06:39:48;;;;;;;6.37;5.37;;;19.20;99.90;;;;;;5033286;28;20207;-75
2021/09/14 06:42:14;;;;;;;5.50;4.90;;;19.30;99.90;;;;;;5020749;28;20578;-74
2021/09/14 06:44:42;;;;;;;6.80;5.00;;;19.40;99.90;;;;;;5036150;28;20657;-78
2021/09/14 06:47:12;;;;;;;7.27;5.60;;;19.50;99.90;;;;;;5033716;28;20734;-75
2021/09/14 06:49:38;;;;;;;5.40;4.90;;;19.60;99.90;;;;;;5017270;28;20667;-75
2021/09/14 06:52:04;;;;;;;5.83;5.33;;;19.60;99.90;;;;;;5051442;28;20236;-73
2021/09/14 06:54:29;;;;;;;5.20;4.70;;;19.70;99.90;;;;;;5051338;28;20181;-74
2021/09/14 06:56:55;;;;;;;7.57;4.77;;;19.80;99.90;;;;;;5051504;28;20572;-74
2021/09/14 06:59:21;;;;;;;5.97;5.07;;;19.90;99.90;;;;;;5022989;28;20173;-75
2021/09/14 07:01:47;;;;;;;4.80;3.90;;;20.10;99.90;;;;;;5021933;28;20628;-74
2021/09/14 07:04:14;;;;;;;5.60;5.10;;;20.40;99.90;;;;;;5020832;28;20679;-74
2021/09/14 07:06:40;;;;;;;5.47;4.70;;;20.70;99.90;;;;;;5031077;28;20186;-75
2021/09/14 07:09:07;;;;;;;6.13;4.20;;;21.30;99.90;;;;;;5031718;28;20591;-74
2021/09/14 07:11:33;;;;;;;4.87;4.27;;;21.80;99.90;;;;;;5031293;28;20209;-74
2021/09/14 07:13:58;;;;;;;3.77;3.33;;;22.30;99.90;;;;;;5021391;28;20651;-74
2021/09/14 07:16:25;;;;;;;5.87;4.23;;;22.80;99.90;;;;;;5032045;28;20200;-74
2021/09/14 07:18:51;;;;;;;6.03;4.20;;;23.20;99.90;;;;;;5014411;28;20524;-75
2021/09/14 07:21:17;;;;;;;4.13;3.10;;;23.50;99.90;;;;;;5036184;28;20568;-74
2021/09/14 07:23:43;;;;;;;5.60;2.97;;;23.90;99.90;;;;;;5029503;28;20570;-74
2021/09/14 07:26:08;;;;;;;6.43;3.60;;;24.00;99.90;;;;;;5030170;28;20566;-75
2021/09/14 07:28:34;;;;;;;5.40;4.10;;;24.10;99.90;;;;;;5031089;28;20568;-75
2021/09/14 07:31:00;;;;;;;4.33;3.60;;;24.30;99.90;;;;;;5031373;28;20553;-75
2021/09/14 07:33:26;;;;;;;5.80;3.43;;;24.30;99.90;;;;;;5031204;28;20190;-75
2021/09/14 07:35:52;;;;;;;4.00;3.70;;;24.40;99.90;;;;;;5031868;28;20588;-74
2021/09/14 07:38:18;;;;;;;5.73;4.23;;;24.40;99.90;;;;;;5034517;28;20253;-74
2021/09/14 07:40:44;;;;;;;4.47;3.30;;;24.50;99.90;;;;;;5031421;28;20231;-75
2021/09/14 07:43:10;;;;;;;4.07;3.63;;;24.50;99.90;;;;;;5030123;28;21016;-75
2021/09/14 07:45:36;;;;;;;3.53;3.17;;;24.50;99.90;;;;;;5031126;28;20592;-75
2021/09/14 07:48:01;;;;;;;5.13;3.90;;;24.80;99.90;;;;;;5030824;28;20181;-74
2021/09/14 07:50:27;;;;;;;3.80;3.30;;;24.80;99.90;;;;;;5031861;28;20170;-74
2021/09/14 07:52:53;;;;;;;3.80;3.50;;;24.90;99.90;;;;;;5033598;28;20189;-74
2021/09/14 07:55:19;;;;;;;3.77;2.93;;;25.10;99.90;;;;;;5034811;28;20587;-73
2021/09/14 07:57:45;;;;;;;4.87;3.50;;;25.10;99.90;;;;;;5037932;28;20166;-74
2021/09/14 08:00:11;;;;;;;5.20;2.30;;;25.30;99.90;;;;;;5016995;28;20583;-74
2021/09/14 08:02:40;;;;;;;3.83;3.43;;;25.50;99.90;;;;;;5034640;28;20230;-74
2021/09/14 08:05:06;;;;;;;5.00;2.87;;;25.80;99.90;;;;;;5034496;28;20984;-74
2021/09/14 08:07:32;;;;;;;3.80;2.50;;;26.40;99.90;;;;;;5034190;28;20580;-74
2021/09/14 08:09:58;;;;;;;3.70;2.70;;;27.20;99.90;;;;;;5034739;28;20599;-74
2021/09/14 08:12:23;;;;;;;3.60;2.80;;;27.80;99.90;;;;;;5034417;28;20726;-74
2021/09/14 08:14:49;;;;;;;2.60;2.40;;;28.10;99.90;;;;;;5033302;28;20276;-74
2021/09/14 08:17:16;;;;;;;3.67;3.20;;;28.70;99.90;;;;;;5033965;28;20256;-75
2021/09/14 08:19:43;;;;;;;3.83;3.40;;;29.20;99.90;;;;;;5034505;28;20177;-74
2021/09/14 08:22:10;;;;;;;3.03;2.70;;;29.20;98.00;;;;;;5034125;28;20938;-74
2021/09/14 08:24:36;;;;;;;2.50;2.00;;;29.20;98.10;;;;;;5034442;28;21288;-74
2021/09/14 08:27:02;;;;;;;3.10;2.90;;;29.40;98.40;;;;;;5032949;28;20609;-74
2021/09/14 08:29:28;;;;;;;2.90;2.60;;;29.40;97.10;;;;;;5033949;28;20604;-74
2021/09/14 08:31:54;;;;;;;5.30;2.23;;;29.50;95.70;;;;;;5033899;28;20202;-74
2021/09/14 08:34:20;;;;;;;3.57;3.13;;;29.60;96.70;;;;;;5038008;28;20276;-74
2021/09/14 08:36:45;;;;;;;3.30;3.00;;;29.90;96.00;;;;;;5031471;28;20208;-74
2021/09/14 08:39:11;;;;;;;2.90;2.70;;;29.90;95.60;;;;;;5031640;28;20162;-74
2021/09/14 08:41:37;;;;;;;5.17;2.87;;;30.10;95.40;;;;;;5033950;28;20178;-74
2021/09/14 08:44:04;;;;;;;3.03;2.20;;;30.60;95.50;;;;;;5033631;28;20283;-74
2021/09/14 08:46:30;;;;;;;2.57;2.37;;;31.00;95.40;;;;;;5032340;28;20692;-74
2021/09/14 08:48:58;;;;;;;2.60;2.33;;;31.50;94.80;;;;;;5039043;28;20683;-75
2021/09/14 08:51:23;;;;;;;2.60;2.20;;;32.00;93.50;;;;;;5035430;28;20627;-75
2021/09/14 08:53:49;;;;;;;3.40;2.00;;;32.30;92.50;;;;;;5035298;28;20623;-75
2021/09/14 08:56:15;;;;;;;4.13;2.10;;;32.50;90.60;;;;;;5053518;28;20172;-75
2021/09/14 08:58:41;;;;;;;6.30;2.70;;;32.90;90.00;;;;;;5052956;28;20184;-74
2021/09/14 09:01:12;;;;;;;3.73;2.63;;;33.00;87.80;;;;;;5035732;28;20173;-75
2021/09/14 09:03:38;;;;;;;2.60;2.17;;;33.20;83.20;;;;;;5052672;28;20999;-74
2021/09/14 09:06:05;;;;;;;3.23;2.40;;;33.30;83.40;;;;;;5053369;28;20625;-75
2021/09/14 09:08:32;;;;;;;2.63;1.93;;;33.50;81.50;;;;;;5053069;28;20559;-75
2021/09/14 09:11:01;;;;;;;3.03;1.83;;;33.60;79.80;;;;;;5054786;28;20622;-75
2021/09/14 09:13:29;;;;;;;2.50;2.30;;;33.60;76.50;;;;;;5053077;28;20598;-75
2021/09/14 09:15:55;;;;;;;2.27;1.80;;;33.50;74.80;;;;;;5053113;28;20571;-75
2021/09/14 09:18:21;;;;;;;3.60;2.30;;;33.30;73.90;;;;;;5052780;28;20670;-75
2021/09/14 09:20:48;;;;;;;2.60;2.20;;;33.00;74.80;;;;;;5052802;28;20218;-75
2021/09/14 09:23:23;;;;;;;4.03;3.03;;;33.10;74.20;;;;;;5052854;28;20193;-74
2021/09/14 09:25:50;;;;;;;2.77;1.93;;;33.10;73.90;;;;;;5035668;28;20578;-75
2021/09/14 09:28:23;;;;;;;3.20;2.40;;;33.10;74.40;;;;;;5052636;28;20579;-74
2021/09/14 09:31:09;;;;;;;2.20;1.70;;;33.30;71.30;;;;;;5052552;28;20654;-74
2021/09/14 09:33:36;;;;;;;4.07;1.80;;;33.40;74.40;;;;;;5052802;28;20602;-74
2021/09/14 09:36:07;;;;;;;5.37;2.80;;;33.50;74.30;;;;;;5052559;28;20577;-74
2021/09/14 09:38:48;;;;;;;2.30;2.10;;;33.70;71.30;;;;;;5052480;28;21042;-74
2021/09/14 09:41:17;;;;;;;2.23;2.03;;;33.80;68.10;;;;;;5034647;28;20593;-74
2021/09/14 09:43:42;;;;;;;3.23;1.90;;;33.70;68.40;;;;;;5052729;28;21016;-75
2021/09/14 09:46:10;;;;;;;2.30;1.73;;;33.80;70.20;;;;;;5033037;28;20576;-76
2021/09/14 09:48:37;;;;;;;3.20;1.70;;;34.10;70.50;;;;;;5033717;28;20181;-76
2021/09/14 09:51:03;;;;;;;3.80;2.40;;;34.40;69.20;;;;;;5032645;28;20689;-77
2021/09/14 09:53:32;;;;;;;3.20;2.50;;;34.40;67.90;;;;;;5032344;28;20638;-77
2021/09/14 09:55:58;;;;;;;2.53;1.93;;;34.20;64.70;;;;;;5032449;28;20572;-78
2021/09/14 09:58:25;;;;;;;2.77;2.10;;;34.20;65.40;;;;;;5032008;28;21100;-78
2021/09/14 10:01:13;;;;;;;2.03;1.83;;;34.20;66.30;;;;;;5032176;28;20189;-74
2021/09/14 10:03:50;;;;;;;3.90;2.00;;;34.20;60.20;;;;;;5032206;28;20596;-74
2021/09/14 10:06:16;;;;;;;3.07;1.97;;;34.20;64.30;;;;;;5032303;28;20574;-74
2021/09/14 10:08:50;;;;;;;2.00;1.60;;;34.30;66.40;;;;;;5031587;28;20933;-74
2021/09/14 10:11:24;;;;;;;1.80;1.47;;;34.20;64.40;;;;;;5032122;28;20633;-75
2021/09/14 10:13:49;;;;;;;3.50;2.00;;;34.00;63.90;;;;;;5031272;28;20708;-74
2021/09/14 10:16:24;;;;;;;2.53;1.90;;;33.30;62.40;;;;;;5032133;28;20669;-74
2021/09/14 10:18:50;;;;;;;2.27;1.90;;;32.90;63.70;;;;;;5031503;28;20500;-74
2021/09/14 10:21:19;;;;;;;2.30;2.10;;;32.50;63.90;;;;;;5031950;28;20638;-75
2021/09/14 10:23:53;;;;;;;3.63;2.37;;;32.30;64.20;;;;;;5035925;28;20307;-74
2021/09/14 10:26:30;;;;;;;2.27;1.60;;;32.00;64.10;;;;;;5014430;28;20574;-74
2021/09/14 10:28:56;;;;;;;2.87;1.83;;;31.90;66.20;;;;;;5031276;28;20632;-74
2021/09/14 10:31:25;;;;;;;2.90;1.93;;;31.90;67.80;;;;;;5014074;28;20621;-74
2021/09/14 10:34:04;;;;;;;2.93;1.80;;;32.10;69.20;;;;;;5031530;28;20180;-74
2021/09/14 10:36:31;;;;;;;2.70;2.37;;;32.30;68.80;;;;;;5014043;28;21062;-74
2021/09/14 10:38:58;;;;;;;4.27;2.90;;;32.70;69.20;;;;;;5031350;28;20571;-74
2021/09/14 10:41:37;;;;;;;3.07;1.70;;;32.80;68.40;;;;;;5013974;28;21194;-74
2021/09/14 10:44:07;;;;;;;2.93;1.63;;;33.00;67.90;;;;;;5031759;28;20745;-74
2021/09/14 10:46:33;;;;;;;3.00;1.57;;;33.10;67.90;;;;;;5013802;28;21327;-74
2021/09/14 10:48:59;;;;;;;2.23;1.43;;;33.20;67.10;;;;;;5014844;28;20579;-74
2021/09/14 10:51:24;;;;;;;2.10;1.30;;;33.30;67.10;;;;;;5034594;28;21255;-76
2021/09/14 10:54:00;;;;;;;2.00;1.40;;;33.40;67.40;;;;;;4981252;28;20197;-75
2021/09/14 10:56:28;;;;;;;2.53;2.20;;;33.70;68.10;;;;;;5031455;28;20179;-75
2021/09/14 10:58:55;;;;;;;3.83;2.20;;;34.20;68.10;;;;;;5013642;28;20576;-75
2021/09/14 11:01:30;;;;;;;2.10;1.73;;;34.40;67.30;;;;;;4998476;28;20623;-75
2021/09/14 11:04:02;;;;;;;2.17;1.97;;;34.60;66.10;;;;;;5031452;28;20600;-75
2021/09/14 11:06:29;;;;;;;3.20;2.10;;;34.70;64.50;;;;;;5031767;28;20604;-75
2021/09/14 11:09:01;;;;;;;2.73;1.50;;;34.50;63.90;;;;;;5031161;28;20577;-75
2021/09/14 11:11:27;;;;;;;2.53;1.77;;;34.60;64.50;;;;;;5031493;28;20630;-75
2021/09/14 11:13:54;;;;;;;2.33;1.73;;;34.70;63.90;;;;;;4997251;28;20592;-75
2021/09/14 11:16:20;;;;;;;4.47;2.80;;;34.60;62.80;;;;;;5031449;28;20698;-76
2021/09/14 11:18:46;;;;;;;5.60;3.30;;;34.40;62.20;;;;;;5030825;28;20567;-76
2021/09/14 11:21:14;;;;;;;3.97;1.90;;;34.10;61.40;;;;;;5031090;28;20574;-75
2021/09/14 11:23:45;;;;;;;2.37;2.17;;;33.70;61.90;;;;;;5031185;28;20206;-82
2021/09/14 11:26:13;;;;;;;2.67;2.47;;;33.40;61.60;;;;;;5015767;28;20599;-82
2021/09/14 11:28:40;;;;;;;4.77;2.90;;;33.00;61.80;;;;;;5035220;28;20573;-83
2021/09/14 11:31:13;;;;;;;2.30;2.07;;;32.60;62.20;;;;;;5035421;28;20626;-80
2021/09/14 11:33:43;;;;;;;2.60;2.20;;;32.30;62.80;;;;;;5035076;28;20644;-80
2021/09/14 11:36:09;;;;;;;2.07;1.80;;;32.10;63.70;;;;;;5032690;28;20698;-81
2021/09/14 11:38:36;;;;;;;2.73;1.90;;;32.20;64.90;;;;;;5038334;28;20595;-82
2021/09/14 11:41:07;;;;;;;6.03;2.67;;;32.10;65.20;;;;;;5035152;28;20595;-81
2021/09/14 11:43:35;;;;;;;3.60;2.43;;;32.10;65.00;;;;;;5035487;28;20607;-80
2021/09/14 11:46:15;;;;;;;3.17;2.60;;;32.10;65.70;;;;;;5035413;28;20585;-80
2021/09/14 11:48:41;;;;;;;5.37;2.97;;;32.30;65.50;;;;;;5034706;28;20570;-81
2021/09/14 11:51:12;;;;;;;2.97;2.53;;;32.40;66.10;;;;;;5034780;28;20709;-81
2021/09/14 11:53:45;;;;;;;4.10;2.30;;;32.40;65.50;;;;;;5017186;28;20590;-80
2021/09/14 11:56:13;;;;;;;2.80;2.13;;;32.40;65.10;;;;;;5034602;28;20582;-80
2021/09/14 11:58:45;;;;;;;2.67;2.47;;;32.20;64.80;;;;;;5032055;28;20574;-80
2021/09/14 12:01:12;;;;;;;2.10;1.43;;;32.00;65.00;;;;;;5034568;28;20598;-80
2021/09/14 12:03:52;;;;;;;3.73;1.83;;;31.90;65.30;;;;;;5034544;28;20606;-80
2021/09/14 12:06:26;;;;;;;2.53;2.30;;;31.80;65.30;;;;;;5034242;28;20976;-80
2021/09/14 12:08:55;;;;;;;2.73;2.07;;;31.50;65.00;;;;;;5034215;28;20926;-80
2021/09/14 12:11:28;;;;;;;4.90;1.90;;;31.30;65.60;;;;;;5034202;28;20656;-80
2021/09/14 12:13:57;;;;;;;4.50;1.73;;;31.00;65.70;;;;;;5038185;28;20592;-80
2021/09/14 12:16:26;;;;;;;3.93;2.47;;;30.90;66.30;;;;;;5016784;28;20999;-80
2021/09/14 12:18:52;;;;;;;5.30;2.40;;;30.70;66.50;;;;;;5039136;28;20568;-80
2021/09/14 12:21:17;;;;;;;3.20;2.90;;;30.60;66.70;;;;;;5039761;28;20607;-81
2021/09/14 12:23:43;;;;;;;2.37;2.17;;;30.30;66.90;;;;;;5020237;28;20267;-80
2021/09/14 12:26:21;;;;;;;2.90;2.10;;;30.20;67.40;;;;;;4985882;28;20260;-82
2021/09/14 12:28:49;;;;;;;2.30;1.70;;;30.00;69.60;;;;;;5035893;28;20527;-81
2021/09/14 12:31:17;;;;;;;3.53;2.77;;;29.90;68.90;;;;;;5038590;28;20635;-81
2021/09/14 12:33:43;;;;;;;3.40;2.30;;;29.80;69.50;;;;;;5041490;28;20596;-81
2021/09/14 12:36:10;;;;;;;3.60;2.97;;;29.70;69.80;;;;;;5040849;28;20603;-81
2021/09/14 12:38:36;;;;;;;5.30;2.20;;;29.70;70.30;;;;;;5020106;28;20579;-80
2021/09/14 12:41:02;;;;;;;3.80;2.50;;;29.70;71.00;;;;;;5039900;28;20901;-80
2021/09/14 12:43:28;;;;;;;1.80;1.70;;;29.60;71.10;;;;;;5027196;28;20635;-79
2021/09/14 12:45:54;;;;;;;2.67;1.50;;;29.60;71.30;;;;;;5033136;28;20584;-78
2021/09/14 12:48:20;;;;;;;2.37;1.87;;;29.50;71.60;;;;;;5018601;28;20201;-78
2021/09/14 12:50:46;;;;;;;3.50;2.13;;;29.40;72.30;;;;;;5051334;28;21201;-78
2021/09/14 12:53:12;;;;;;;2.13;1.80;;;29.30;72.10;;;;;;5031273;28;20623;-80
2021/09/14 12:55:38;;;;;;;2.30;2.10;;;29.30;72.70;;;;;;5010452;28;20675;-82
2021/09/14 12:58:05;;;;;;;2.37;2.13;;;29.20;72.80;;;;;;5031586;28;20241;-81
2021/09/14 13:00:32;;;;;;;2.87;2.50;;;29.20;72.90;;;;;;5027740;28;20687;-82
2021/09/14 13:02:59;;;;;;;2.17;1.73;;;29.10;73.20;;;;;;5025531;28;20658;-81
2021/09/14 13:05:29;;;;;;;3.00;1.60;;;29.00;73.40;;;;;;5040769;28;20634;-81
2021/09/14 13:07:55;;;;;;;3.30;2.83;;;28.90;74.20;;;;;;5024784;28;20598;-82
2021/09/14 13:10:21;;;;;;;3.53;2.63;;;28.80;74.20;;;;;;5025007;28;20588;-82
2021/09/14 13:12:49;;;;;;;1.80;1.70;;;28.80;74.90;;;;;;5024026;28;20712;-81
2021/09/14 13:18:00;;;;;;;2.97;2.03;;;28.90;76.00;;;;;;5023437;28;20589;-80
2021/09/14 13:20:27;;;;;;;2.67;2.33;;;28.90;76.80;;;;;;5022835;28;20572;-79
2021/09/14 13:22:54;;;;;;;1.97;1.40;;;28.90;76.80;;;;;;5019104;28;20627;-79
2021/09/14 13:25:22;;;;;;;4.27;2.17;;;28.90;77.00;;;;;;5022357;28;20634;-80
2021/09/14 13:27:51;;;;;;;1.70;1.60;;;29.00;77.40;;;;;;5023067;28;20592;-77
2021/09/14 13:30:16;;;;;;;2.03;1.83;;;29.10;77.50;;;;;;5034423;28;20999;-79
2021/09/14 13:32:42;;;;;;;3.67;2.20;;;29.20;77.30;;;;;;5017142;28;20721;-79
2021/09/14 13:35:08;;;;;;;2.33;2.07;;;29.10;77.40;;;;;;5001043;28;20660;-79
2021/09/14 13:37:34;;;;;;;3.53;2.00;;;29.10;77.50;;;;;;5016855;28;20177;-78
2021/09/14 13:40:00;;;;;;;2.37;2.07;;;29.10;77.50;;;;;;5000390;28;21174;-79
2021/09/14 13:42:27;;;;;;;2.43;1.80;;;29.10;77.80;;;;;;5017041;28;20184;-79
2021/09/14 13:47:20;;;;;;;2.13;1.70;;;29.10;77.90;;;;;;5035863;28;21032;-77
2021/09/14 13:49:47;;;;;;;1.70;1.60;;;29.10;78.00;;;;;;5016745;28;20297;-79
2021/09/14 13:52:13;;;;;;;4.17;1.57;;;29.10;78.00;;;;;;5016674;28;20964;-79